sensor_id;sensor_type;location;lat;lon;timestamp;P1;durP1;ratioP1;P2;durP2;ratioP2
48849;SDS011;63210;53.370;6.770;2023-08-24T00:00:36;9.82;;;5.90;;
48849;SDS011;63210;53.370;6.770;2023-08-24T00:03:02;10.30;;;6.35;;
48849;SDS011;63210;53.370;6.770;2023-08-24T00:05:28;7.57;;;6.60;;
48849;SDS011;63210;53.370;6.770;2023-08-24T00:07:53;8.25;;;6.22;;
48849;SDS011;63210;53.370;6.770;2023-08-24T00:10:18;11.25;;;6.43;;
48849;SDS011;63210;53.370;6.770;2023-08-24T00:12:43;11.38;;;7.13;;
48849;SDS011;63210;53.370;6.770;2023-08-24T00:15:09;11.57;;;7.50;;
48849;SDS011;63210;53.370;6.770;2023-08-24T00:17:35;11.15;;;6.43;;
48849;SDS011;63210;53.370;6.770;2023-08-24T00:20:01;8.93;;;6.20;;
48849;SDS011;63210;53.370;6.770;2023-08-24T00:22:29;13.05;;;6.82;;
48849;SDS011;63210;53.370;6.770;2023-08-24T00:24:54;8.18;;;6.47;;
48849;SDS011;63210;53.370;6.770;2023-08-24T00:27:20;11.93;;;6.73;;
48849;SDS011;63210;53.370;6.770;2023-08-24T00:29:45;9.47;;;6.77;;
48849;SDS011;63210;53.370;6.770;2023-08-24T00:32:10;12.27;;;6.88;;
48849;SDS011;63210;53.370;6.770;2023-08-24T00:34:35;14.07;;;7.63;;
48849;SDS011;63210;53.370;6.770;2023-08-24T00:37:01;13.48;;;7.03;;
48849;SDS011;63210;53.370;6.770;2023-08-24T00:39:26;9.57;;;6.50;;
48849;SDS011;63210;53.370;6.770;2023-08-24T00:41:52;11.70;;;6.03;;
48849;SDS011;63210;53.370;6.770;2023-08-24T00:44:17;9.98;;;6.20;;
48849;SDS011;63210;53.370;6.770;2023-08-24T00:46:42;6.75;;;5.82;;
48849;SDS011;63210;53.370;6.770;2023-08-24T00:49:08;12.10;;;6.35;;
48849;SDS011;63210;53.370;6.770;2023-08-24T00:51:33;13.23;;;6.82;;
48849;SDS011;63210;53.370;6.770;2023-08-24T00:53:59;6.72;;;5.20;;
48849;SDS011;63210;53.370;6.770;2023-08-24T00:56:24;10.02;;;6.68;;
48849;SDS011;63210;53.370;6.770;2023-08-24T00:58:50;7.50;;;5.57;;
48849;SDS011;63210;53.370;6.770;2023-08-24T01:01:16;6.82;;;4.95;;
48849;SDS011;63210;53.370;6.770;2023-08-24T01:03:42;13.32;;;8.30;;
48849;SDS011;63210;53.370;6.770;2023-08-24T01:06:07;11.85;;;7.53;;
48849;SDS011;63210;53.370;6.770;2023-08-24T01:08:32;16.63;;;9.73;;
48849;SDS011;63210;53.370;6.770;2023-08-24T01:13:38;13.55;;;9.40;;
48849;SDS011;63210;53.370;6.770;2023-08-24T01:16:13;11.80;;;7.78;;
48849;SDS011;63210;53.370;6.770;2023-08-24T01:18:40;10.45;;;7.05;;
48849;SDS011;63210;53.370;6.770;2023-08-24T01:21:08;9.48;;;5.70;;
48849;SDS011;63210;53.370;6.770;2023-08-24T01:26:04;6.35;;;5.75;;
48849;SDS011;63210;53.370;6.770;2023-08-24T01:28:29;11.90;;;6.32;;
48849;SDS011;63210;53.370;6.770;2023-08-24T01:30:55;7.60;;;5.97;;
48849;SDS011;63210;53.370;6.770;2023-08-24T01:33:21;8.27;;;6.25;;
48849;SDS011;63210;53.370;6.770;2023-08-24T01:35:46;8.95;;;5.95;;
48849;SDS011;63210;53.370;6.770;2023-08-24T01:38:11;8.68;;;5.78;;
48849;SDS011;63210;53.370;6.770;2023-08-24T01:40:45;6.93;;;6.22;;
48849;SDS011;63210;53.370;6.770;2023-08-24T01:43:13;14.93;;;7.82;;
48849;SDS011;63210;53.370;6.770;2023-08-24T01:45:38;10.60;;;7.10;;
48849;SDS011;63210;53.370;6.770;2023-08-24T01:48:04;10.13;;;7.88;;
48849;SDS011;63210;53.370;6.770;2023-08-24T01:50:30;11.00;;;7.82;;
48849;SDS011;63210;53.370;6.770;2023-08-24T01:52:56;10.82;;;8.27;;
48849;SDS011;63210;53.370;6.770;2023-08-24T01:55:22;11.77;;;7.72;;
48849;SDS011;63210;53.370;6.770;2023-08-24T01:57:48;11.50;;;8.35;;
48849;SDS011;63210;53.370;6.770;2023-08-24T02:00:13;10.73;;;7.18;;
48849;SDS011;63210;53.370;6.770;2023-08-24T02:02:39;9.13;;;6.60;;
48849;SDS011;63210;53.370;6.770;2023-08-24T02:05:04;11.07;;;7.68;;
48849;SDS011;63210;53.370;6.770;2023-08-24T02:07:29;13.30;;;8.35;;
48849;SDS011;63210;53.370;6.770;2023-08-24T02:09:55;10.20;;;6.80;;
48849;SDS011;63210;53.370;6.770;2023-08-24T02:12:20;9.68;;;7.88;;
48849;SDS011;63210;53.370;6.770;2023-08-24T02:14:45;12.07;;;7.13;;
48849;SDS011;63210;53.370;6.770;2023-08-24T02:17:11;8.65;;;6.63;;
48849;SDS011;63210;53.370;6.770;2023-08-24T02:19:36;7.85;;;6.03;;
48849;SDS011;63210;53.370;6.770;2023-08-24T02:22:01;9.20;;;6.70;;
48849;SDS011;63210;53.370;6.770;2023-08-24T02:24:26;10.40;;;7.17;;
48849;SDS011;63210;53.370;6.770;2023-08-24T02:26:52;10.95;;;7.72;;
48849;SDS011;63210;53.370;6.770;2023-08-24T02:29:17;8.90;;;6.17;;
48849;SDS011;63210;53.370;6.770;2023-08-24T02:31:42;11.68;;;6.50;;
48849;SDS011;63210;53.370;6.770;2023-08-24T02:34:07;10.80;;;6.30;;
48849;SDS011;63210;53.370;6.770;2023-08-24T02:36:33;10.40;;;6.23;;
48849;SDS011;63210;53.370;6.770;2023-08-24T02:39:01;9.82;;;7.05;;
48849;SDS011;63210;53.370;6.770;2023-08-24T02:41:26;10.77;;;7.72;;
48849;SDS011;63210;53.370;6.770;2023-08-24T02:43:52;9.75;;;7.82;;
48849;SDS011;63210;53.370;6.770;2023-08-24T02:46:17;16.58;;;8.18;;
48849;SDS011;63210;53.370;6.770;2023-08-24T02:48:43;9.98;;;6.68;;
48849;SDS011;63210;53.370;6.770;2023-08-24T02:51:09;11.02;;;7.70;;
48849;SDS011;63210;53.370;6.770;2023-08-24T02:53:35;13.27;;;7.72;;
48849;SDS011;63210;53.370;6.770;2023-08-24T02:56:00;14.63;;;7.75;;
48849;SDS011;63210;53.370;6.770;2023-08-24T02:58:26;11.48;;;7.20;;
48849;SDS011;63210;53.370;6.770;2023-08-24T03:00:52;9.00;;;7.40;;
48849;SDS011;63210;53.370;6.770;2023-08-24T03:03:17;11.48;;;7.45;;
48849;SDS011;63210;53.370;6.770;2023-08-24T03:05:58;9.40;;;7.18;;
48849;SDS011;63210;53.370;6.770;2023-08-24T03:08:24;10.10;;;6.53;;
48849;SDS011;63210;53.370;6.770;2023-08-24T03:10:50;10.35;;;6.28;;
48849;SDS011;63210;53.370;6.770;2023-08-24T03:13:15;13.20;;;6.53;;
48849;SDS011;63210;53.370;6.770;2023-08-24T03:15:40;11.23;;;7.32;;
48849;SDS011;63210;53.370;6.770;2023-08-24T03:18:06;10.80;;;7.32;;
48849;SDS011;63210;53.370;6.770;2023-08-24T03:20:31;11.30;;;6.95;;
48849;SDS011;63210;53.370;6.770;2023-08-24T03:22:56;12.27;;;7.15;;
48849;SDS011;63210;53.370;6.770;2023-08-24T03:25:22;14.35;;;7.90;;
48849;SDS011;63210;53.370;6.770;2023-08-24T03:27:47;12.07;;;8.98;;
48849;SDS011;63210;53.370;6.770;2023-08-24T03:30:13;11.95;;;8.43;;
48849;SDS011;63210;53.370;6.770;2023-08-24T03:32:39;13.45;;;8.73;;
48849;SDS011;63210;53.370;6.770;2023-08-24T03:35:05;10.63;;;8.75;;
48849;SDS011;63210;53.370;6.770;2023-08-24T03:37:30;14.25;;;9.07;;
48849;SDS011;63210;53.370;6.770;2023-08-24T03:39:55;9.82;;;8.52;;
48849;SDS011;63210;53.370;6.770;2023-08-24T03:42:20;13.23;;;9.33;;
48849;SDS011;63210;53.370;6.770;2023-08-24T03:44:46;14.93;;;9.45;;
48849;SDS011;63210;53.370;6.770;2023-08-24T03:47:11;13.68;;;8.77;;
48849;SDS011;63210;53.370;6.770;2023-08-24T03:49:36;16.40;;;9.53;;
48849;SDS011;63210;53.370;6.770;2023-08-24T03:52:02;12.60;;;8.50;;
48849;SDS011;63210;53.370;6.770;2023-08-24T03:54:28;11.05;;;8.02;;
48849;SDS011;63210;53.370;6.770;2023-08-24T03:56:53;11.05;;;8.32;;
48849;SDS011;63210;53.370;6.770;2023-08-24T03:59:18;13.18;;;8.10;;
48849;SDS011;63210;53.370;6.770;2023-08-24T04:01:44;9.50;;;7.80;;
48849;SDS011;63210;53.370;6.770;2023-08-24T04:04:09;12.93;;;6.93;;
48849;SDS011;63210;53.370;6.770;2023-08-24T04:06:34;8.50;;;7.00;;
48849;SDS011;63210;53.370;6.770;2023-08-24T04:09:00;13.45;;;8.18;;
48849;SDS011;63210;53.370;6.770;2023-08-24T04:11:25;15.27;;;8.17;;
48849;SDS011;63210;53.370;6.770;2023-08-24T04:13:50;11.80;;;7.70;;
48849;SDS011;63210;53.370;6.770;2023-08-24T04:16:15;15.30;;;8.53;;
48849;SDS011;63210;53.370;6.770;2023-08-24T04:18:41;11.02;;;7.18;;
48849;SDS011;63210;53.370;6.770;2023-08-24T04:21:06;8.82;;;7.07;;
48849;SDS011;63210;53.370;6.770;2023-08-24T04:23:31;11.18;;;7.90;;
48849;SDS011;63210;53.370;6.770;2023-08-24T04:25:57;11.63;;;8.70;;
48849;SDS011;63210;53.370;6.770;2023-08-24T04:28:22;12.18;;;8.40;;
48849;SDS011;63210;53.370;6.770;2023-08-24T04:30:52;12.70;;;7.40;;
48849;SDS011;63210;53.370;6.770;2023-08-24T04:33:18;10.82;;;7.60;;
48849;SDS011;63210;53.370;6.770;2023-08-24T04:35:45;10.27;;;7.25;;
48849;SDS011;63210;53.370;6.770;2023-08-24T04:38:10;16.35;;;9.75;;
48849;SDS011;63210;53.370;6.770;2023-08-24T04:40:46;11.63;;;9.05;;
48849;SDS011;63210;53.370;6.770;2023-08-24T04:43:11;16.83;;;8.43;;
48849;SDS011;63210;53.370;6.770;2023-08-24T04:45:36;16.20;;;8.50;;
48849;SDS011;63210;53.370;6.770;2023-08-24T04:48:04;13.53;;;8.20;;
48849;SDS011;63210;53.370;6.770;2023-08-24T04:50:29;12.98;;;7.60;;
48849;SDS011;63210;53.370;6.770;2023-08-24T04:52:55;12.55;;;8.98;;
48849;SDS011;63210;53.370;6.770;2023-08-24T04:55:20;9.20;;;8.05;;
48849;SDS011;63210;53.370;6.770;2023-08-24T04:57:45;14.18;;;8.35;;
48849;SDS011;63210;53.370;6.770;2023-08-24T05:00:11;13.07;;;8.98;;
48849;SDS011;63210;53.370;6.770;2023-08-24T05:02:41;14.03;;;8.70;;
48849;SDS011;63210;53.370;6.770;2023-08-24T05:05:06;13.45;;;9.10;;
48849;SDS011;63210;53.370;6.770;2023-08-24T05:07:32;11.52;;;9.23;;
48849;SDS011;63210;53.370;6.770;2023-08-24T05:09:57;11.43;;;8.45;;
48849;SDS011;63210;53.370;6.770;2023-08-24T05:12:23;12.30;;;8.23;;
48849;SDS011;63210;53.370;6.770;2023-08-24T05:14:48;11.63;;;7.70;;
48849;SDS011;63210;53.370;6.770;2023-08-24T05:17:13;13.95;;;8.85;;
48849;SDS011;63210;53.370;6.770;2023-08-24T05:19:38;13.05;;;9.35;;
48849;SDS011;63210;53.370;6.770;2023-08-24T05:22:04;10.82;;;7.60;;
48849;SDS011;63210;53.370;6.770;2023-08-24T05:24:29;12.07;;;7.63;;
48849;SDS011;63210;53.370;6.770;2023-08-24T05:26:54;9.27;;;7.33;;
48849;SDS011;63210;53.370;6.770;2023-08-24T05:29:19;11.63;;;7.53;;
48849;SDS011;63210;53.370;6.770;2023-08-24T05:31:45;10.53;;;7.50;;
48849;SDS011;63210;53.370;6.770;2023-08-24T05:34:10;14.98;;;7.55;;
48849;SDS011;63210;53.370;6.770;2023-08-24T05:36:35;11.60;;;8.20;;
48849;SDS011;63210;53.370;6.770;2023-08-24T05:39:00;15.38;;;9.05;;
48849;SDS011;63210;53.370;6.770;2023-08-24T05:41:26;11.13;;;9.70;;
48849;SDS011;63210;53.370;6.770;2023-08-24T05:43:51;11.15;;;8.88;;
48849;SDS011;63210;53.370;6.770;2023-08-24T05:46:17;16.73;;;8.98;;
48849;SDS011;63210;53.370;6.770;2023-08-24T05:48:43;12.60;;;8.32;;
48849;SDS011;63210;53.370;6.770;2023-08-24T05:51:08;13.97;;;9.27;;
48849;SDS011;63210;53.370;6.770;2023-08-24T05:53:35;13.10;;;9.02;;
48849;SDS011;63210;53.370;6.770;2023-08-24T05:56:00;15.35;;;9.90;;
48849;SDS011;63210;53.370;6.770;2023-08-24T05:58:25;15.35;;;9.77;;
48849;SDS011;63210;53.370;6.770;2023-08-24T06:01:00;21.60;;;14.23;;
48849;SDS011;63210;53.370;6.770;2023-08-24T06:03:25;15.02;;;9.55;;
48849;SDS011;63210;53.370;6.770;2023-08-24T06:05:51;12.63;;;9.23;;
48849;SDS011;63210;53.370;6.770;2023-08-24T06:08:16;13.43;;;10.18;;
48849;SDS011;63210;53.370;6.770;2023-08-24T06:10:41;12.38;;;9.43;;
48849;SDS011;63210;53.370;6.770;2023-08-24T06:13:07;15.40;;;9.90;;
48849;SDS011;63210;53.370;6.770;2023-08-24T06:15:32;16.63;;;10.23;;
48849;SDS011;63210;53.370;6.770;2023-08-24T06:17:57;13.53;;;9.57;;
48849;SDS011;63210;53.370;6.770;2023-08-24T06:20:24;17.77;;;11.32;;
48849;SDS011;63210;53.370;6.770;2023-08-24T06:22:49;18.35;;;10.27;;
48849;SDS011;63210;53.370;6.770;2023-08-24T06:25:15;16.83;;;10.70;;
48849;SDS011;63210;53.370;6.770;2023-08-24T06:27:40;15.25;;;8.93;;
48849;SDS011;63210;53.370;6.770;2023-08-24T06:30:06;12.43;;;9.30;;
48849;SDS011;63210;53.370;6.770;2023-08-24T06:32:31;13.43;;;9.38;;
48849;SDS011;63210;53.370;6.770;2023-08-24T06:34:56;16.73;;;10.43;;
48849;SDS011;63210;53.370;6.770;2023-08-24T06:37:22;16.85;;;9.43;;
48849;SDS011;63210;53.370;6.770;2023-08-24T06:39:47;13.13;;;9.55;;
48849;SDS011;63210;53.370;6.770;2023-08-24T06:42:12;16.63;;;9.55;;
48849;SDS011;63210;53.370;6.770;2023-08-24T06:44:38;13.82;;;9.50;;
48849;SDS011;63210;53.370;6.770;2023-08-24T06:47:03;16.88;;;10.25;;
48849;SDS011;63210;53.370;6.770;2023-08-24T06:49:28;13.38;;;9.48;;
48849;SDS011;63210;53.370;6.770;2023-08-24T06:51:54;13.43;;;8.73;;
48849;SDS011;63210;53.370;6.770;2023-08-24T06:54:19;15.05;;;8.77;;
48849;SDS011;63210;53.370;6.770;2023-08-24T06:56:44;15.45;;;8.40;;
48849;SDS011;63210;53.370;6.770;2023-08-24T06:59:09;13.53;;;8.20;;
48849;SDS011;63210;53.370;6.770;2023-08-24T07:01:38;11.40;;;7.97;;
48849;SDS011;63210;53.370;6.770;2023-08-24T07:04:03;11.27;;;7.97;;
48849;SDS011;63210;53.370;6.770;2023-08-24T07:06:28;14.88;;;8.25;;
48849;SDS011;63210;53.370;6.770;2023-08-24T07:08:53;11.60;;;7.63;;
48849;SDS011;63210;53.370;6.770;2023-08-24T07:11:19;11.27;;;8.30;;
48849;SDS011;63210;53.370;6.770;2023-08-24T07:13:45;8.70;;;6.88;;
48849;SDS011;63210;53.370;6.770;2023-08-24T07:16:11;13.68;;;6.80;;
48849;SDS011;63210;53.370;6.770;2023-08-24T07:18:36;9.48;;;6.25;;
48849;SDS011;63210;53.370;6.770;2023-08-24T07:21:01;9.43;;;6.47;;
48849;SDS011;63210;53.370;6.770;2023-08-24T07:23:27;9.85;;;6.43;;
48849;SDS011;63210;53.370;6.770;2023-08-24T07:25:52;10.45;;;6.25;;
48849;SDS011;63210;53.370;6.770;2023-08-24T07:28:17;11.15;;;6.45;;
48849;SDS011;63210;53.370;6.770;2023-08-24T07:30:42;12.83;;;7.43;;
48849;SDS011;63210;53.370;6.770;2023-08-24T07:33:08;14.13;;;9.10;;
48849;SDS011;63210;53.370;6.770;2023-08-24T07:35:33;14.25;;;6.70;;
48849;SDS011;63210;53.370;6.770;2023-08-24T07:37:58;9.75;;;6.50;;
48849;SDS011;63210;53.370;6.770;2023-08-24T07:40:24;8.47;;;6.90;;
48849;SDS011;63210;53.370;6.770;2023-08-24T07:42:49;15.70;;;7.35;;
48849;SDS011;63210;53.370;6.770;2023-08-24T07:48:06;13.38;;;7.68;;
48849;SDS011;63210;53.370;6.770;2023-08-24T07:50:31;9.85;;;7.65;;
48849;SDS011;63210;53.370;6.770;2023-08-24T07:52:57;13.88;;;9.40;;
48849;SDS011;63210;53.370;6.770;2023-08-24T07:55:22;15.55;;;8.98;;
48849;SDS011;63210;53.370;6.770;2023-08-24T07:57:47;15.63;;;8.57;;
48849;SDS011;63210;53.370;6.770;2023-08-24T08:00:14;17.38;;;9.20;;
48849;SDS011;63210;53.370;6.770;2023-08-24T08:02:39;238.63;;;27.98;;
48849;SDS011;63210;53.370;6.770;2023-08-24T08:05:05;13.02;;;8.50;;
48849;SDS011;63210;53.370;6.770;2023-08-24T08:07:32;10.02;;;8.18;;
48849;SDS011;63210;53.370;6.770;2023-08-24T08:09:57;11.48;;;7.72;;
48849;SDS011;63210;53.370;6.770;2023-08-24T08:12:23;10.45;;;7.82;;
48849;SDS011;63210;53.370;6.770;2023-08-24T08:14:48;12.50;;;7.65;;
48849;SDS011;63210;53.370;6.770;2023-08-24T08:17:13;15.70;;;8.97;;
48849;SDS011;63210;53.370;6.770;2023-08-24T08:19:39;10.63;;;7.30;;
48849;SDS011;63210;53.370;6.770;2023-08-24T08:22:04;11.57;;;7.85;;
48849;SDS011;63210;53.370;6.770;2023-08-24T08:24:30;11.60;;;8.20;;
48849;SDS011;63210;53.370;6.770;2023-08-24T08:26:55;12.45;;;7.70;;
48849;SDS011;63210;53.370;6.770;2023-08-24T08:29:20;15.57;;;8.40;;
48849;SDS011;63210;53.370;6.770;2023-08-24T08:31:46;11.13;;;8.82;;
48849;SDS011;63210;53.370;6.770;2023-08-24T08:34:11;13.87;;;8.20;;
48849;SDS011;63210;53.370;6.770;2023-08-24T08:36:36;9.23;;;7.93;;
48849;SDS011;63210;53.370;6.770;2023-08-24T08:39:02;14.63;;;8.50;;
48849;SDS011;63210;53.370;6.770;2023-08-24T08:41:30;11.68;;;7.63;;
48849;SDS011;63210;53.370;6.770;2023-08-24T08:43:55;11.02;;;7.78;;
48849;SDS011;63210;53.370;6.770;2023-08-24T08:46:21;9.75;;;7.55;;
48849;SDS011;63210;53.370;6.770;2023-08-24T08:48:46;16.33;;;7.75;;
48849;SDS011;63210;53.370;6.770;2023-08-24T08:51:12;14.52;;;7.07;;
48849;SDS011;63210;53.370;6.770;2023-08-24T08:53:38;13.50;;;8.63;;
48849;SDS011;63210;53.370;6.770;2023-08-24T08:56:04;13.25;;;7.32;;
48849;SDS011;63210;53.370;6.770;2023-08-24T08:58:31;9.63;;;6.53;;
48849;SDS011;63210;53.370;6.770;2023-08-24T09:00:56;11.15;;;6.57;;
48849;SDS011;63210;53.370;6.770;2023-08-24T09:03:25;7.97;;;6.07;;
48849;SDS011;63210;53.370;6.770;2023-08-24T09:05:51;10.52;;;5.70;;
48849;SDS011;63210;53.370;6.770;2023-08-24T09:08:16;12.95;;;6.97;;
48849;SDS011;63210;53.370;6.770;2023-08-24T09:10:42;14.63;;;6.45;;
48849;SDS011;63210;53.370;6.770;2023-08-24T09:13:07;13.65;;;6.15;;
48849;SDS011;63210;53.370;6.770;2023-08-24T09:15:36;11.10;;;6.65;;
48849;SDS011;63210;53.370;6.770;2023-08-24T09:18:01;12.98;;;6.30;;
48849;SDS011;63210;53.370;6.770;2023-08-24T09:20:29;12.27;;;5.97;;
48849;SDS011;63210;53.370;6.770;2023-08-24T09:22:55;11.10;;;5.75;;
48849;SDS011;63210;53.370;6.770;2023-08-24T09:25:22;7.15;;;5.57;;
48849;SDS011;63210;53.370;6.770;2023-08-24T09:27:55;8.13;;;5.97;;
48849;SDS011;63210;53.370;6.770;2023-08-24T09:30:21;10.68;;;6.38;;
48849;SDS011;63210;53.370;6.770;2023-08-24T09:32:46;7.93;;;5.70;;
48849;SDS011;63210;53.370;6.770;2023-08-24T09:35:11;11.80;;;6.40;;
48849;SDS011;63210;53.370;6.770;2023-08-24T09:37:37;8.13;;;5.97;;
48849;SDS011;63210;53.370;6.770;2023-08-24T09:40:07;9.23;;;6.70;;
48849;SDS011;63210;53.370;6.770;2023-08-24T09:42:37;10.88;;;6.10;;
48849;SDS011;63210;53.370;6.770;2023-08-24T09:45:07;9.68;;;5.40;;
48849;SDS011;63210;53.370;6.770;2023-08-24T09:47:35;8.57;;;5.55;;
48849;SDS011;63210;53.370;6.770;2023-08-24T09:50:00;10.45;;;5.47;;
48849;SDS011;63210;53.370;6.770;2023-08-24T09:52:25;7.65;;;4.50;;
48849;SDS011;63210;53.370;6.770;2023-08-24T09:54:55;8.77;;;4.90;;
48849;SDS011;63210;53.370;6.770;2023-08-24T09:57:20;8.02;;;5.05;;
48849;SDS011;63210;53.370;6.770;2023-08-24T09:59:46;8.27;;;5.38;;
48849;SDS011;63210;53.370;6.770;2023-08-24T10:02:15;12.63;;;5.50;;
48849;SDS011;63210;53.370;6.770;2023-08-24T10:04:40;8.68;;;5.25;;
48849;SDS011;63210;53.370;6.770;2023-08-24T10:07:10;9.77;;;5.63;;
48849;SDS011;63210;53.370;6.770;2023-08-24T10:09:52;13.75;;;5.43;;
48849;SDS011;63210;53.370;6.770;2023-08-24T10:12:18;14.35;;;5.93;;
48849;SDS011;63210;53.370;6.770;2023-08-24T10:15:01;7.65;;;5.35;;
48849;SDS011;63210;53.370;6.770;2023-08-24T10:17:32;8.55;;;4.80;;
48849;SDS011;63210;53.370;6.770;2023-08-24T10:19:58;8.05;;;5.38;;
48849;SDS011;63210;53.370;6.770;2023-08-24T10:22:26;7.50;;;5.45;;
48849;SDS011;63210;53.370;6.770;2023-08-24T10:24:52;9.07;;;5.50;;
48849;SDS011;63210;53.370;6.770;2023-08-24T10:27:18;8.02;;;5.00;;
48849;SDS011;63210;53.370;6.770;2023-08-24T10:29:45;10.05;;;6.10;;
48849;SDS011;63210;53.370;6.770;2023-08-24T10:32:10;9.18;;;5.40;;
48849;SDS011;63210;53.370;6.770;2023-08-24T10:34:36;8.05;;;5.53;;
48849;SDS011;63210;53.370;6.770;2023-08-24T10:37:08;15.40;;;6.85;;
48849;SDS011;63210;53.370;6.770;2023-08-24T10:39:33;11.30;;;6.30;;
48849;SDS011;63210;53.370;6.770;2023-08-24T10:42:00;8.80;;;4.93;;
48849;SDS011;63210;53.370;6.770;2023-08-24T10:44:35;9.65;;;4.93;;
48849;SDS011;63210;53.370;6.770;2023-08-24T10:47:11;7.38;;;4.88;;
48849;SDS011;63210;53.370;6.770;2023-08-24T10:49:40;8.05;;;5.38;;
48849;SDS011;63210;53.370;6.770;2023-08-24T10:52:19;8.82;;;5.05;;
48849;SDS011;63210;53.370;6.770;2023-08-24T10:54:45;8.95;;;5.28;;
48849;SDS011;63210;53.370;6.770;2023-08-24T10:57:44;9.18;;;5.47;;
48849;SDS011;63210;53.370;6.770;2023-08-24T11:00:10;9.35;;;6.03;;
48849;SDS011;63210;53.370;6.770;2023-08-24T11:02:42;10.15;;;5.95;;
48849;SDS011;63210;53.370;6.770;2023-08-24T11:05:18;12.30;;;6.60;;
48849;SDS011;63210;53.370;6.770;2023-08-24T11:07:47;9.45;;;6.70;;
48849;SDS011;63210;53.370;6.770;2023-08-24T11:10:13;8.98;;;6.25;;
48849;SDS011;63210;53.370;6.770;2023-08-24T11:15:32;9.18;;;7.40;;
48849;SDS011;63210;53.370;6.770;2023-08-24T11:21:00;11.10;;;8.20;;
48849;SDS011;63210;53.370;6.770;2023-08-24T11:23:25;13.80;;;8.18;;
48849;SDS011;63210;53.370;6.770;2023-08-24T11:25:51;11.70;;;7.97;;
48849;SDS011;63210;53.370;6.770;2023-08-24T11:28:22;12.07;;;8.65;;
48849;SDS011;63210;53.370;6.770;2023-08-24T11:30:48;13.38;;;8.85;;
48849;SDS011;63210;53.370;6.770;2023-08-24T11:33:13;13.50;;;9.95;;
48849;SDS011;63210;53.370;6.770;2023-08-24T11:35:42;11.07;;;9.35;;
48849;SDS011;63210;53.370;6.770;2023-08-24T11:38:08;14.63;;;9.98;;
48849;SDS011;63210;53.370;6.770;2023-08-24T11:40:33;12.68;;;9.30;;
48849;SDS011;63210;53.370;6.770;2023-08-24T11:42:59;16.00;;;9.73;;
48849;SDS011;63210;53.370;6.770;2023-08-24T11:45:29;17.50;;;10.98;;
48849;SDS011;63210;53.370;6.770;2023-08-24T11:47:55;13.23;;;10.65;;
48849;SDS011;63210;53.370;6.770;2023-08-24T11:50:22;13.70;;;9.88;;
48849;SDS011;63210;53.370;6.770;2023-08-24T11:52:48;12.35;;;9.57;;
48849;SDS011;63210;53.370;6.770;2023-08-24T11:55:13;13.43;;;10.10;;
48849;SDS011;63210;53.370;6.770;2023-08-24T11:57:39;15.13;;;9.32;;
48849;SDS011;63210;53.370;6.770;2023-08-24T12:00:05;15.50;;;10.30;;
48849;SDS011;63210;53.370;6.770;2023-08-24T12:02:30;20.80;;;11.57;;
48849;SDS011;63210;53.370;6.770;2023-08-24T12:04:57;16.38;;;10.68;;
48849;SDS011;63210;53.370;6.770;2023-08-24T12:07:22;13.75;;;10.18;;
48849;SDS011;63210;53.370;6.770;2023-08-24T12:09:47;13.07;;;10.63;;
48849;SDS011;63210;53.370;6.770;2023-08-24T12:12:17;13.10;;;10.27;;
48849;SDS011;63210;53.370;6.770;2023-08-24T12:14:44;13.45;;;10.35;;
48849;SDS011;63210;53.370;6.770;2023-08-24T12:17:10;15.10;;;10.20;;
48849;SDS011;63210;53.370;6.770;2023-08-24T12:19:35;16.17;;;10.82;;
48849;SDS011;63210;53.370;6.770;2023-08-24T12:22:01;12.70;;;10.52;;
48849;SDS011;63210;53.370;6.770;2023-08-24T12:24:26;14.77;;;10.00;;
48849;SDS011;63210;53.370;6.770;2023-08-24T12:26:57;14.53;;;10.20;;
48849;SDS011;63210;53.370;6.770;2023-08-24T12:29:23;15.75;;;10.65;;
48849;SDS011;63210;53.370;6.770;2023-08-24T12:31:48;14.82;;;10.95;;
48849;SDS011;63210;53.370;6.770;2023-08-24T12:34:14;13.43;;;10.38;;
48849;SDS011;63210;53.370;6.770;2023-08-24T12:36:41;12.68;;;10.88;;
48849;SDS011;63210;53.370;6.770;2023-08-24T12:39:06;14.85;;;10.23;;
48849;SDS011;63210;53.370;6.770;2023-08-24T12:41:33;28.17;;;18.02;;
48849;SDS011;63210;53.370;6.770;2023-08-24T12:43:58;16.88;;;11.57;;
48849;SDS011;63210;53.370;6.770;2023-08-24T12:46:24;14.75;;;11.45;;
48849;SDS011;63210;53.370;6.770;2023-08-24T12:48:50;12.15;;;9.48;;
48849;SDS011;63210;53.370;6.770;2023-08-24T12:51:15;15.95;;;10.75;;
48849;SDS011;63210;53.370;6.770;2023-08-24T12:53:41;12.73;;;9.73;;
48849;SDS011;63210;53.370;6.770;2023-08-24T12:56:06;11.80;;;8.93;;
48849;SDS011;63210;53.370;6.770;2023-08-24T12:58:32;14.93;;;9.88;;
48849;SDS011;63210;53.370;6.770;2023-08-24T13:00:59;11.55;;;9.02;;
48849;SDS011;63210;53.370;6.770;2023-08-24T13:03:24;14.18;;;8.80;;
48849;SDS011;63210;53.370;6.770;2023-08-24T13:05:49;14.73;;;9.02;;
48849;SDS011;63210;53.370;6.770;2023-08-24T13:08:14;11.73;;;8.90;;
48849;SDS011;63210;53.370;6.770;2023-08-24T13:10:40;13.10;;;8.98;;
48849;SDS011;63210;53.370;6.770;2023-08-24T13:13:05;11.88;;;7.78;;
48849;SDS011;63210;53.370;6.770;2023-08-24T13:15:30;13.52;;;8.73;;
48849;SDS011;63210;53.370;6.770;2023-08-24T13:17:56;15.38;;;9.13;;
48849;SDS011;63210;53.370;6.770;2023-08-24T13:20:22;12.35;;;8.90;;
48849;SDS011;63210;53.370;6.770;2023-08-24T13:22:47;15.75;;;10.82;;
48849;SDS011;63210;53.370;6.770;2023-08-24T13:25:13;23.63;;;10.00;;
48849;SDS011;63210;53.370;6.770;2023-08-24T13:27:38;14.60;;;9.73;;
48849;SDS011;63210;53.370;6.770;2023-08-24T13:30:03;14.95;;;10.00;;
48849;SDS011;63210;53.370;6.770;2023-08-24T13:32:29;14.45;;;10.48;;
48849;SDS011;63210;53.370;6.770;2023-08-24T13:34:54;14.55;;;11.40;;
48849;SDS011;63210;53.370;6.770;2023-08-24T13:37:21;13.88;;;10.63;;
48849;SDS011;63210;53.370;6.770;2023-08-24T13:39:46;11.95;;;10.02;;
48849;SDS011;63210;53.370;6.770;2023-08-24T13:42:11;19.02;;;11.35;;
48849;SDS011;63210;53.370;6.770;2023-08-24T13:44:38;17.70;;;11.20;;
48849;SDS011;63210;53.370;6.770;2023-08-24T13:47:04;17.80;;;11.02;;
48849;SDS011;63210;53.370;6.770;2023-08-24T13:49:29;14.52;;;11.60;;
48849;SDS011;63210;53.370;6.770;2023-08-24T13:51:54;15.37;;;11.80;;
48849;SDS011;63210;53.370;6.770;2023-08-24T13:54:19;17.50;;;11.82;;
48849;SDS011;63210;53.370;6.770;2023-08-24T13:56:46;18.15;;;11.68;;
48849;SDS011;63210;53.370;6.770;2023-08-24T13:59:12;19.35;;;13.23;;
48849;SDS011;63210;53.370;6.770;2023-08-24T14:01:37;16.13;;;11.70;;
48849;SDS011;63210;53.370;6.770;2023-08-24T14:04:03;15.20;;;12.45;;
48849;SDS011;63210;53.370;6.770;2023-08-24T14:06:28;17.48;;;12.98;;
48849;SDS011;63210;53.370;6.770;2023-08-24T14:08:54;17.77;;;12.40;;
48849;SDS011;63210;53.370;6.770;2023-08-24T14:11:19;21.90;;;13.10;;
48849;SDS011;63210;53.370;6.770;2023-08-24T14:13:45;18.75;;;12.07;;
48849;SDS011;63210;53.370;6.770;2023-08-24T14:16:10;19.07;;;12.70;;
48849;SDS011;63210;53.370;6.770;2023-08-24T14:18:35;19.85;;;13.40;;
48849;SDS011;63210;53.370;6.770;2023-08-24T14:21:01;16.08;;;13.65;;
48849;SDS011;63210;53.370;6.770;2023-08-24T14:23:27;16.88;;;14.55;;
48849;SDS011;63210;53.370;6.770;2023-08-24T14:25:52;18.83;;;13.88;;
48849;SDS011;63210;53.370;6.770;2023-08-24T14:28:18;17.45;;;14.00;;
48849;SDS011;63210;53.370;6.770;2023-08-24T14:30:44;22.05;;;13.88;;
48849;SDS011;63210;53.370;6.770;2023-08-24T14:33:09;21.58;;;12.80;;
48849;SDS011;63210;53.370;6.770;2023-08-24T14:35:34;17.33;;;14.67;;
48849;SDS011;63210;53.370;6.770;2023-08-24T14:38:00;21.42;;;15.02;;
48849;SDS011;63210;53.370;6.770;2023-08-24T14:40:25;17.03;;;14.73;;
48849;SDS011;63210;53.370;6.770;2023-08-24T14:42:50;17.33;;;15.33;;